Mount Isa, Queensland

5:39 PM EST on September 01, 2014 (GMT +1000)
Mount Isa | Change Station
CLOSE
Current Station
Airport
Location: Mount Isa,
Elevation: 1115 ft
Nearby Weather Stations

Elev 1115 ft 20.68 °S, 139.49 °E | Updated 39 minutes ago

Clear
Clear
90 °F
Feels Like 90 °F
N
7
Wind Variable Wind from SSW

Today
High -- | Low -- °F
--% Chance of Precip.
Yesterday
High -- | Low -- °F
Precip. -- in
6:51 AM 6:33 PM
Waxing Crescent, 38% visible
Pressure 29.95 in
Visibility 6.2 miles
Clouds
Dew Point 19 °F
Humidity 8%
Rainfall 0.00 in
Snow Depth Not available.
UV Not available.
Pollen Not available.
Air Quality Not available.
Flu Activity Not available.
METAR YBMA 010700Z AUTO 21006KT 9999 // NCD 32/M07 Q1014

More Conditions Fewer Conditions

Pressure 29.95 in
Visibility 6.2 miles
Clouds
Dew Point 19 °F
Humidity 8%
Rainfall 0.00 in
Snow Depth Not available.
UV Not available.
Pollen Not available.
Air Quality Not available.
Flu Activity Not available.
METAR YBMA 010700Z AUTO 21006KT 9999 // NCD 32/M07 Q1014

More Conditions Fewer Conditions

10-Day Weather Forecast

Almanac

Astronomy

Sep. 01, 2014 Rise Set
Actual Time 6:51 AM EST 6:33 PM EST
Civil Twilight 6:29 AM EST 6:55 PM EST
Nautical Twilight 6:03 AM EST 7:21 PM EST
Astronomical Twilight 5:37 AM EST 7:47 PM EST
Moon 10:56 AM EST No Moon Set
Length of Visible Light 12h 26m
Length of Day
11h 41m
Tomorrow will be 1m 6s longer.
Waxing Crescent, 38% of the Moon is Illuminated
Today
Waxing Crescent
Sep 2
First Quarter
Sep 8
Full
Sep 15
Last Quarter
Sep 24
New

Yesterday's Extremes

Country Highs Country Lows

Community

WunderPhotos

Upload Photos

1,749,154 photos uploaded!

Nearby

Snow Depth

Not available.

Earthquake Activity

City Distance Mag. Time & Date
No recent earthquake activity has been reported nearby.
Minimum magnitude displayed is 2.5.

Coastal Water Temperatures

Place Temperature
No Stations Reporting

Nearby Weather Stations